createdAt,value
2023-05-02T00:01:10.696Z,9.27
2023-05-02T00:03:39.587Z,9.40
2023-05-02T00:06:07.893Z,8.40
2023-05-02T00:08:36.121Z,9.33
2023-05-02T00:11:04.204Z,8.87
2023-05-02T00:13:33.717Z,8.50
2023-05-02T00:16:01.961Z,8.90
2023-05-02T00:18:30.075Z,9.97
2023-05-02T00:20:58.185Z,9.33
2023-05-02T00:23:26.324Z,9.73
2023-05-02T00:25:54.441Z,9.73
2023-05-02T00:28:22.623Z,8.20
2023-05-02T00:30:52.199Z,8.87
2023-05-02T00:33:20.480Z,9.60
2023-05-02T00:35:48.585Z,9.40
2023-05-02T00:38:16.929Z,9.60
2023-05-02T00:40:46.745Z,9.80
2023-05-02T00:43:15.458Z,11.60
2023-05-02T00:45:46.102Z,10.43
2023-05-02T00:48:17.885Z,10.20
2023-05-02T00:50:46.174Z,9.90
2023-05-02T00:53:14.325Z,10.03
2023-05-02T00:55:42.606Z,9.63
2023-05-02T00:58:14.085Z,9.60
2023-05-02T01:01:02.522Z,9.47
2023-05-02T01:03:47.231Z,9.77
2023-05-02T01:06:36.302Z,8.80
2023-05-02T01:09:23.242Z,8.80
2023-05-02T01:12:03.931Z,9.23
2023-05-02T01:14:37.040Z,7.80
2023-05-02T01:17:12.340Z,7.87
2023-05-02T01:19:49.259Z,8.67
2023-05-02T01:22:20.330Z,7.93
2023-05-02T01:25:01.185Z,8.40
2023-05-02T01:27:42.906Z,8.47
2023-05-02T01:30:16.968Z,7.90
2023-05-02T01:32:48.415Z,8.70
2023-05-02T01:35:19.499Z,8.57
2023-05-02T01:37:50.697Z,7.70
2023-05-02T01:40:22.498Z,7.83
2023-05-02T01:42:53.765Z,7.93
2023-05-02T01:45:26.335Z,8.40
2023-05-02T01:47:56.201Z,8.07
2023-05-02T01:50:27.232Z,7.73
2023-05-02T01:52:57.141Z,8.53
2023-05-02T01:55:27.354Z,7.53
2023-05-02T01:57:57.795Z,8.40
2023-05-02T02:00:28.669Z,7.20
2023-05-02T02:03:00.576Z,7.30
2023-05-02T02:05:29.877Z,7.93
2023-05-02T02:07:58.562Z,7.60
2023-05-02T02:10:32.730Z,8.33
2023-05-02T02:13:09.963Z,7.27
2023-05-02T02:15:42.539Z,8.17
2023-05-02T02:18:19.315Z,8.50
2023-05-02T02:20:51.025Z,8.00
2023-05-02T02:23:22.827Z,8.70
2023-05-02T02:25:53.298Z,8.33
2023-05-02T02:28:21.837Z,8.20
2023-05-02T02:30:51.573Z,8.07
2023-05-02T02:33:21.661Z,8.17
2023-05-02T02:35:59.855Z,8.03
2023-05-02T02:38:42.603Z,8.57
2023-05-02T02:41:23.317Z,8.43
2023-05-02T02:44:05.098Z,8.53
2023-05-02T02:46:49.974Z,8.37
2023-05-02T02:49:35.517Z,8.53
2023-05-02T02:52:11.500Z,8.03
2023-05-02T02:54:47.454Z,8.37
2023-05-02T02:57:23.505Z,7.53
2023-05-02T03:00:02.830Z,7.43
2023-05-02T03:02:34.729Z,9.13
2023-05-02T03:05:05.479Z,7.90
2023-05-02T03:07:34.500Z,7.80
2023-05-02T03:10:06.853Z,7.50
2023-05-02T03:12:36.526Z,8.27
2023-05-02T03:15:28.908Z,8.47
2023-05-02T03:17:58.401Z,8.73
2023-05-02T03:20:26.590Z,7.97
2023-05-02T03:22:55.108Z,8.23
2023-05-02T03:25:23.855Z,9.10
2023-05-02T03:27:52.084Z,8.53
2023-05-02T03:30:20.801Z,8.47
2023-05-02T03:32:49.345Z,8.70
2023-05-02T03:35:21.779Z,9.10
2023-05-02T03:37:52.236Z,8.67
2023-05-02T03:40:21.948Z,8.30
2023-05-02T03:42:50.262Z,9.20
2023-05-02T03:45:27.935Z,9.10
2023-05-02T03:47:56.842Z,9.17
2023-05-02T03:50:26.650Z,9.03
2023-05-02T03:52:55.626Z,10.07
2023-05-02T03:55:32.567Z,9.27
2023-05-02T03:58:01.069Z,9.27
2023-05-02T04:00:29.192Z,8.30
2023-05-02T04:03:04.015Z,8.07
2023-05-02T04:05:35.700Z,7.87
2023-05-02T04:08:03.902Z,9.13
2023-05-02T04:10:32.486Z,9.40
2023-05-02T04:13:03.832Z,8.80
2023-05-02T04:15:33.423Z,8.93
2023-05-02T04:18:02.374Z,9.43
2023-05-02T04:20:31.736Z,9.37
2023-05-02T04:23:01.224Z,8.80
2023-05-02T04:25:29.836Z,8.47
2023-05-02T04:28:01.966Z,9.33
2023-05-02T04:30:31.717Z,8.50
2023-05-02T04:33:06.709Z,9.70
2023-05-02T04:35:40.405Z,9.40
2023-05-02T04:38:10.850Z,9.63
2023-05-02T04:40:39.579Z,9.00
2023-05-02T04:43:08.680Z,9.97
2023-05-02T04:45:41.727Z,9.47
2023-05-02T04:48:16.396Z,9.80
2023-05-02T04:50:46.966Z,9.00
2023-05-02T04:53:16.411Z,9.03
2023-05-02T04:55:44.566Z,8.67
2023-05-02T04:58:12.708Z,8.83
2023-05-02T05:00:42.058Z,8.47
2023-05-02T05:03:10.272Z,9.40
2023-05-02T05:05:38.487Z,10.33
2023-05-02T05:08:10.033Z,9.70
2023-05-02T05:10:40.851Z,9.90
2023-05-02T05:13:09.804Z,10.50
2023-05-02T05:15:38.918Z,11.03
2023-05-02T05:18:08.125Z,10.67
2023-05-02T05:20:36.317Z,10.93
2023-05-02T05:23:06.093Z,11.07
2023-05-02T05:25:34.466Z,13.40
2023-05-02T05:28:05.198Z,13.90
2023-05-02T05:30:35.707Z,14.07
2023-05-02T05:33:06.348Z,14.10
2023-05-02T05:35:34.524Z,13.50
2023-05-02T05:38:04.412Z,12.03
2023-05-02T05:40:35.717Z,12.10
2023-05-02T05:43:05.261Z,13.50
2023-05-02T05:45:37.353Z,12.00
2023-05-02T05:48:07.677Z,12.23
2023-05-02T05:50:42.248Z,11.73
2023-05-02T05:53:10.426Z,12.23
2023-05-02T05:55:42.158Z,12.37
2023-05-02T05:58:12.371Z,11.98
2023-05-02T06:00:41.832Z,11.77
2023-05-02T06:03:10.227Z,11.87
2023-05-02T06:05:39.167Z,11.98
2023-05-02T06:08:07.286Z,11.95
2023-05-02T06:10:35.643Z,11.40
2023-05-02T06:13:04.245Z,11.05
2023-05-02T06:15:38.185Z,11.80
2023-05-02T06:18:07.804Z,11.37
2023-05-02T06:20:37.708Z,11.85
2023-05-02T06:23:05.845Z,12.35
2023-05-02T06:25:34.017Z,11.38
2023-05-02T06:28:02.156Z,11.55
2023-05-02T06:30:30.299Z,12.32
2023-05-02T06:33:00.883Z,12.73
2023-05-02T06:35:29.057Z,12.77
2023-05-02T06:37:57.157Z,12.63
2023-05-02T06:40:25.269Z,11.82
2023-05-02T06:42:53.368Z,12.30
2023-05-02T06:45:21.687Z,11.43
2023-05-02T06:47:49.870Z,12.48
2023-05-02T06:50:19.858Z,11.38
2023-05-02T06:52:47.936Z,11.23
2023-05-02T06:55:16.210Z,12.52
2023-05-02T06:57:44.629Z,11.88
2023-05-02T07:00:14.808Z,11.13
2023-05-02T07:02:42.970Z,12.10
2023-05-02T07:05:11.492Z,11.98
2023-05-02T07:07:40.940Z,12.35
2023-05-02T07:10:10.115Z,12.13
2023-05-02T07:12:38.673Z,11.90
2023-05-02T07:15:09.068Z,11.93
2023-05-02T07:17:37.308Z,12.60
2023-05-02T07:20:06.940Z,12.45
2023-05-02T07:22:35.035Z,11.25
2023-05-02T07:25:04.760Z,11.63
2023-05-02T07:27:32.841Z,12.95
2023-05-02T07:30:01.889Z,12.52
2023-05-02T07:32:30.581Z,12.15
2023-05-02T07:34:58.909Z,11.57
2023-05-02T07:37:27.294Z,12.35
2023-05-02T07:39:55.424Z,12.30
2023-05-02T07:42:30.468Z,11.70
2023-05-02T07:45:00.081Z,11.25
2023-05-02T07:47:29.274Z,11.05
2023-05-02T07:49:57.819Z,11.98
2023-05-02T07:52:27.620Z,10.77
2023-05-02T07:54:56.292Z,11.18
2023-05-02T07:57:27.689Z,11.30
2023-05-02T07:59:57.196Z,10.50
2023-05-02T08:02:26.132Z,11.40
2023-05-02T08:04:55.045Z,11.20
2023-05-02T08:07:23.237Z,11.32
2023-05-02T08:09:51.504Z,10.70
2023-05-02T08:12:19.605Z,10.85
2023-05-02T08:14:49.067Z,11.07
2023-05-02T08:17:17.152Z,10.40
2023-05-02T08:19:45.284Z,9.68
2023-05-02T08:22:13.426Z,10.48
2023-05-02T08:24:42.031Z,9.43
2023-05-02T08:27:10.263Z,9.57
2023-05-02T08:29:38.615Z,10.35
2023-05-02T08:32:08.458Z,9.88
2023-05-02T08:34:36.698Z,9.75
2023-05-02T08:37:10.062Z,10.52
2023-05-02T08:39:38.213Z,9.73
2023-05-02T08:42:08.629Z,10.38
2023-05-02T08:44:38.008Z,10.43
2023-05-02T08:47:12.019Z,10.23
2023-05-02T08:49:42.128Z,9.85
2023-05-02T08:52:12.216Z,10.73
2023-05-02T08:54:40.882Z,10.23
2023-05-02T08:57:09.337Z,10.43
2023-05-02T08:59:37.512Z,10.68
2023-05-02T09:02:24.794Z,10.32
2023-05-02T09:04:58.121Z,10.70
2023-05-02T09:07:27.052Z,10.10
2023-05-02T09:09:55.377Z,10.73
2023-05-02T09:12:27.585Z,10.88
2023-05-02T09:15:11.895Z,11.10
2023-05-02T09:17:43.848Z,9.77
2023-05-02T09:20:13.931Z,9.50
2023-05-02T09:22:50.564Z,10.00
2023-05-02T09:25:20.335Z,9.32
2023-05-02T09:27:54.481Z,9.40
2023-05-02T09:30:25.421Z,8.95
2023-05-02T09:32:56.269Z,9.23
2023-05-02T09:35:24.886Z,9.50
2023-05-02T09:37:54.950Z,8.88
2023-05-02T09:40:24.286Z,9.30
2023-05-02T09:42:52.714Z,9.48
2023-05-02T09:45:26.608Z,9.18
2023-05-02T09:47:56.090Z,9.98
2023-05-02T09:50:35.505Z,8.25
2023-05-02T09:53:09.468Z,9.20
2023-05-02T09:55:37.986Z,8.10
2023-05-02T09:58:06.596Z,8.80
2023-05-02T10:00:44.566Z,8.35
2023-05-02T10:03:18.692Z,8.73
2023-05-02T10:05:48.481Z,8.35
2023-05-02T10:08:19.858Z,8.60
2023-05-02T10:10:53.430Z,8.18
2023-05-02T10:13:24.441Z,8.82
2023-05-02T10:16:01.479Z,7.82
2023-05-02T10:18:53.142Z,7.88
2023-05-02T10:21:27.789Z,8.68
2023-05-02T10:23:56.853Z,8.93
2023-05-02T10:26:25.245Z,8.00
2023-05-02T10:28:56.829Z,7.68
2023-05-02T10:31:25.484Z,8.23
2023-05-02T10:34:00.615Z,8.55
2023-05-02T10:36:31.545Z,8.23
2023-05-02T10:38:59.983Z,8.38
2023-05-02T10:41:32.132Z,7.93
2023-05-02T10:44:02.119Z,8.60
2023-05-02T10:46:35.305Z,8.48
2023-05-02T10:49:07.420Z,9.10
2023-05-02T10:51:37.082Z,9.00
2023-05-02T10:54:22.854Z,7.72
2023-05-02T10:57:06.641Z,8.23
2023-05-02T10:59:37.917Z,8.82
2023-05-02T11:02:07.462Z,8.68
2023-05-02T11:05:04.442Z,9.25
2023-05-02T11:07:34.134Z,8.55
2023-05-02T11:10:31.361Z,8.93
2023-05-02T11:13:01.203Z,8.63
2023-05-02T11:16:00.637Z,8.38
2023-05-02T11:18:29.425Z,7.80
2023-05-02T11:21:33.161Z,6.25
2023-05-02T11:24:39.422Z,5.20
2023-05-02T11:27:41.259Z,5.57
2023-05-02T11:30:12.801Z,4.82
2023-05-02T11:33:20.189Z,3.67
2023-05-02T11:35:50.199Z,4.45
2023-05-02T11:38:22.508Z,4.68
2023-05-02T11:41:02.611Z,5.05
2023-05-02T11:43:32.391Z,5.15
2023-05-02T11:46:02.961Z,5.95
2023-05-02T11:48:32.685Z,5.47
2023-05-02T11:51:05.067Z,5.85
2023-05-02T11:53:35.108Z,5.68
2023-05-02T11:56:05.606Z,5.45
2023-05-02T11:58:34.840Z,5.63
2023-05-02T12:01:14.453Z,6.10
2023-05-02T12:03:43.306Z,5.50
2023-05-02T12:06:14.126Z,6.03
2023-05-02T12:08:45.612Z,6.22
2023-05-02T12:11:15.660Z,5.45
2023-05-02T12:13:48.921Z,6.13
2023-05-02T12:16:18.293Z,5.30
2023-05-02T12:18:48.301Z,5.25
2023-05-02T12:21:17.738Z,6.25
2023-05-02T12:23:47.778Z,5.43
2023-05-02T12:26:22.135Z,5.78
2023-05-02T12:28:51.494Z,4.82
2023-05-02T12:31:20.748Z,5.07
2023-05-02T12:33:50.621Z,5.25
2023-05-02T12:36:19.734Z,5.15
2023-05-02T12:38:54.710Z,6.13
2023-05-02T12:41:33.971Z,5.78
2023-05-02T12:44:02.538Z,5.93
2023-05-02T12:46:31.787Z,5.55
2023-05-02T12:49:05.465Z,6.40
2023-05-02T12:51:34.637Z,4.57
2023-05-02T12:54:05.184Z,5.40
2023-05-02T12:56:40.727Z,4.90
2023-05-02T12:59:09.635Z,5.28
2023-05-02T13:01:37.995Z,3.92
2023-05-02T13:04:06.546Z,4.95
2023-05-02T13:06:37.594Z,4.38
2023-05-02T13:09:07.346Z,4.47
2023-05-02T13:11:35.668Z,4.70
2023-05-02T13:14:05.655Z,3.40
2023-05-02T13:16:36.554Z,3.08
2023-05-02T13:19:05.716Z,3.53
2023-05-02T13:21:33.880Z,3.55
2023-05-02T13:24:04.026Z,3.13
2023-05-02T13:26:33.497Z,3.08
2023-05-02T13:29:01.636Z,2.85
2023-05-02T13:31:30.033Z,3.22
2023-05-02T13:33:58.241Z,2.70
2023-05-02T13:36:26.984Z,2.97
2023-05-02T13:38:55.240Z,2.88
2023-05-02T13:41:24.488Z,2.92
2023-05-02T13:43:54.400Z,2.90
2023-05-02T13:46:22.637Z,2.60
2023-05-02T13:48:50.828Z,2.47
2023-05-02T13:51:18.950Z,2.90
2023-05-02T13:53:47.065Z,2.40
2023-05-02T13:56:16.045Z,2.72
2023-05-02T13:58:44.190Z,2.78
2023-05-02T14:01:13.709Z,3.13
2023-05-02T14:03:41.934Z,3.05
2023-05-02T14:06:10.240Z,2.95
2023-05-02T14:08:38.457Z,2.97
2023-05-02T14:11:07.364Z,3.58
2023-05-02T14:13:35.730Z,2.67
2023-05-02T14:16:04.383Z,2.97
2023-05-02T14:18:33.899Z,2.90
2023-05-02T14:21:03.295Z,2.55
2023-05-02T14:23:31.561Z,2.58
2023-05-02T14:25:59.903Z,2.58
2023-05-02T14:28:28.050Z,2.15
2023-05-02T14:30:56.424Z,2.83
2023-05-02T14:33:24.773Z,2.60
2023-05-02T14:35:54.414Z,2.60
2023-05-02T14:38:22.600Z,2.17
2023-05-02T14:40:50.767Z,2.42
2023-05-02T14:43:18.932Z,2.15
2023-05-02T14:45:47.059Z,4.18
2023-05-02T14:48:17.221Z,2.45
2023-05-02T14:50:45.524Z,2.03
2023-05-02T14:53:15.066Z,2.00
2023-05-02T14:55:43.293Z,2.22
2023-05-02T14:58:11.929Z,2.60
2023-05-02T15:00:40.466Z,2.45
2023-05-02T15:03:09.762Z,2.45
2023-05-02T15:05:38.403Z,2.45
2023-05-02T15:08:07.178Z,2.45
2023-05-02T15:10:39.758Z,2.17
2023-05-02T15:13:08.642Z,2.30
2023-05-02T15:15:37.498Z,2.10
2023-05-02T15:18:06.156Z,2.13
2023-05-02T15:20:34.478Z,2.20
2023-05-02T15:23:03.619Z,3.15
2023-05-02T15:25:32.523Z,2.40
2023-05-02T15:28:03.048Z,2.35
2023-05-02T15:30:31.220Z,2.67
2023-05-02T15:32:59.551Z,2.60
2023-05-02T15:35:27.748Z,2.20
2023-05-02T15:37:56.802Z,2.38
2023-05-02T15:40:25.974Z,1.88
2023-05-02T15:42:54.262Z,2.00
2023-05-02T15:45:23.930Z,6.50
2023-05-02T15:47:52.232Z,2.38
2023-05-02T15:50:20.561Z,1.65
2023-05-02T15:52:48.692Z,1.85
2023-05-02T15:55:17.102Z,1.70
2023-05-02T15:57:45.284Z,1.63
2023-05-02T16:00:16.859Z,1.30
2023-05-02T16:02:46.587Z,1.42
2023-05-02T16:05:15.073Z,1.10
2023-05-02T16:07:43.163Z,0.95
2023-05-02T16:10:11.824Z,1.70
2023-05-02T16:12:39.940Z,1.48
2023-05-02T16:15:09.650Z,1.50
2023-05-02T16:17:37.868Z,1.27
2023-05-02T16:20:10.066Z,2.05
2023-05-02T16:22:38.949Z,1.95
2023-05-02T16:25:08.053Z,1.60
2023-05-02T16:27:36.212Z,1.90
2023-05-02T16:30:04.901Z,1.95
2023-05-02T16:32:34.181Z,1.40
2023-05-02T16:35:02.359Z,1.50
2023-05-02T16:37:32.002Z,1.70
2023-05-02T16:40:01.086Z,1.45
2023-05-02T16:42:29.814Z,1.20
2023-05-02T16:44:58.247Z,1.55
2023-05-02T16:47:26.809Z,1.65
2023-05-02T16:49:55.639Z,1.80
2023-05-02T16:52:23.986Z,1.90
2023-05-02T16:54:53.775Z,1.50
2023-05-02T16:57:23.248Z,1.80
2023-05-02T16:59:53.218Z,1.65
2023-05-02T17:02:22.222Z,1.55
2023-05-02T17:04:51.133Z,2.10
2023-05-02T17:07:19.930Z,1.73
2023-05-02T17:09:48.098Z,2.00
2023-05-02T17:12:22.407Z,2.60
2023-05-02T17:14:51.654Z,2.35
2023-05-02T17:17:22.718Z,2.30
2023-05-02T17:19:51.485Z,2.13
2023-05-02T17:22:19.994Z,2.78
2023-05-02T17:24:49.518Z,2.30
2023-05-02T17:27:19.149Z,2.63
2023-05-02T17:29:47.466Z,2.70
2023-05-02T17:32:15.936Z,2.83
2023-05-02T17:34:44.994Z,2.92
2023-05-02T17:37:13.261Z,3.40
2023-05-02T17:39:41.446Z,2.13
2023-05-02T17:42:09.577Z,2.60
2023-05-02T17:44:39.881Z,2.50
2023-05-02T17:47:08.515Z,3.13
2023-05-02T17:49:36.682Z,3.42
2023-05-02T17:52:05.476Z,3.20
2023-05-02T17:54:33.586Z,3.05
2023-05-02T17:57:01.852Z,2.97
2023-05-02T17:59:30.309Z,2.55
2023-05-02T18:01:59.824Z,2.58
2023-05-02T18:04:27.961Z,3.15
2023-05-02T18:06:56.176Z,3.33
2023-05-02T18:09:24.408Z,3.30
2023-05-02T18:11:53.418Z,4.38
2023-05-02T18:14:22.561Z,37.40
2023-05-02T18:16:52.015Z,27.73
2023-05-02T18:19:22.929Z,5.82
2023-05-02T18:21:51.485Z,4.45
2023-05-02T18:24:19.701Z,4.95
2023-05-02T18:26:50.047Z,4.53
2023-05-02T18:29:18.288Z,4.13
2023-05-02T18:31:52.199Z,3.70
2023-05-02T18:34:22.794Z,4.70
2023-05-02T18:36:51.058Z,9.10
2023-05-02T18:39:21.445Z,28.70
2023-05-02T18:41:49.639Z,4.72
2023-05-02T18:44:18.279Z,4.32
2023-05-02T18:46:46.915Z,3.40
2023-05-02T18:49:15.618Z,3.00
2023-05-02T18:51:45.221Z,3.03
2023-05-02T18:54:13.602Z,2.60
2023-05-02T18:56:42.742Z,2.63
2023-05-02T18:59:11.831Z,2.15
2023-05-02T19:01:40.340Z,2.35
2023-05-02T19:04:08.622Z,2.10
2023-05-02T19:06:39.309Z,2.50
2023-05-02T19:09:09.207Z,2.53
2023-05-02T19:11:37.528Z,2.63
2023-05-02T19:14:05.745Z,2.28
2023-05-02T19:16:34.988Z,2.30
2023-05-02T19:19:03.817Z,2.10
2023-05-02T19:21:32.960Z,2.22
2023-05-02T19:24:01.786Z,2.30
2023-05-02T19:26:31.958Z,2.58
2023-05-02T19:29:00.155Z,2.28
2023-05-02T19:31:28.469Z,2.10
2023-05-02T19:33:56.659Z,2.40
2023-05-02T19:36:27.437Z,1.70
2023-05-02T19:38:58.049Z,2.70
2023-05-02T19:41:26.756Z,2.08
2023-05-02T19:43:56.876Z,2.38
2023-05-02T19:46:25.167Z,2.60
2023-05-02T19:48:53.409Z,2.25
2023-05-02T19:51:25.613Z,2.38
2023-05-02T19:53:54.139Z,2.20
2023-05-02T19:56:25.298Z,2.47
2023-05-02T19:58:56.638Z,2.10
2023-05-02T20:01:26.029Z,2.20
2023-05-02T20:03:54.777Z,2.40
2023-05-02T20:06:23.075Z,2.50
2023-05-02T20:08:52.801Z,2.75
2023-05-02T20:11:21.392Z,2.13
2023-05-02T20:13:49.645Z,2.60
2023-05-02T20:16:19.359Z,2.47
2023-05-02T20:18:47.585Z,2.78
2023-05-02T20:21:18.640Z,2.70
2023-05-02T20:23:46.780Z,2.05
2023-05-02T20:26:17.147Z,1.98
2023-05-02T20:28:45.343Z,2.08
2023-05-02T20:31:13.525Z,2.40
2023-05-02T20:33:45.853Z,2.53
2023-05-02T20:36:15.658Z,2.88
2023-05-02T20:38:44.805Z,2.60
2023-05-02T20:41:13.821Z,3.00
2023-05-02T20:43:44.800Z,3.55
2023-05-02T20:46:16.236Z,4.38
2023-05-02T20:48:45.899Z,3.65
2023-05-02T20:51:14.487Z,3.83
2023-05-02T20:53:42.656Z,4.38
2023-05-02T20:56:11.020Z,3.10
2023-05-02T20:58:39.178Z,3.10
2023-05-02T21:01:07.475Z,3.30
2023-05-02T21:03:39.258Z,3.50
2023-05-02T21:06:08.915Z,2.60
2023-05-02T21:08:37.149Z,2.90
2023-05-02T21:11:14.372Z,2.95
2023-05-02T21:13:42.917Z,2.90
2023-05-02T21:16:18.790Z,3.42
2023-05-02T21:18:47.300Z,3.67
2023-05-02T21:21:16.925Z,3.55
2023-05-02T21:23:45.474Z,3.13
2023-05-02T21:26:13.749Z,3.45
2023-05-02T21:28:41.898Z,3.08
2023-05-02T21:31:10.049Z,2.90
2023-05-02T21:33:38.593Z,3.25
2023-05-02T21:36:07.270Z,2.97
2023-05-02T21:38:36.808Z,3.25
2023-05-02T21:41:06.924Z,3.00
2023-05-02T21:43:38.619Z,3.22
2023-05-02T21:46:07.062Z,3.60
2023-05-02T21:48:35.789Z,3.15
2023-05-02T21:51:08.419Z,4.30
2023-05-02T21:53:38.541Z,4.18
2023-05-02T21:56:08.554Z,3.65
2023-05-02T21:58:36.731Z,3.67
2023-05-02T22:01:05.134Z,3.47
2023-05-02T22:03:34.263Z,3.75
2023-05-02T22:06:05.971Z,3.53
2023-05-02T22:08:34.969Z,3.20
2023-05-02T22:11:09.058Z,4.57
2023-05-02T22:13:37.464Z,3.75
2023-05-02T22:16:06.738Z,3.92
2023-05-02T22:18:34.998Z,3.60
2023-05-02T22:21:03.579Z,3.88
2023-05-02T22:23:31.907Z,4.97
2023-05-02T22:26:00.170Z,4.43
2023-05-02T22:28:29.784Z,5.10
2023-05-02T22:30:57.919Z,5.30
2023-05-02T22:33:26.133Z,5.38
2023-05-02T22:35:54.258Z,5.43
2023-05-02T22:38:22.375Z,5.20
2023-05-02T22:40:50.523Z,4.55
2023-05-02T22:43:18.815Z,4.22
2023-05-02T22:45:51.083Z,4.25
2023-05-02T22:48:19.477Z,3.77
2023-05-02T22:50:48.612Z,4.20
2023-05-02T22:53:17.152Z,4.00
2023-05-02T22:55:45.287Z,4.65
2023-05-02T22:58:13.377Z,3.67
2023-05-02T23:00:41.818Z,3.60
2023-05-02T23:03:11.895Z,3.90
2023-05-02T23:05:40.670Z,3.38
2023-05-02T23:08:09.030Z,3.47
2023-05-02T23:10:37.224Z,2.87
2023-05-02T23:13:05.903Z,3.72
2023-05-02T23:15:34.018Z,4.60
2023-05-02T23:18:02.248Z,3.72
2023-05-02T23:20:33.509Z,3.30
2023-05-02T23:23:01.700Z,3.53
2023-05-02T23:25:30.749Z,3.17
2023-05-02T23:27:58.885Z,3.37
2023-05-02T23:30:27.055Z,3.22
2023-05-02T23:32:56.017Z,3.37
2023-05-02T23:35:24.363Z,3.47
2023-05-02T23:37:53.973Z,3.37
2023-05-02T23:40:22.203Z,3.30
2023-05-02T23:42:50.451Z,4.10
2023-05-02T23:45:19.871Z,4.47
2023-05-02T23:47:48.177Z,3.37
2023-05-02T23:50:16.441Z,3.60
2023-05-02T23:52:44.563Z,3.27
2023-05-02T23:55:14.012Z,3.57
2023-05-02T23:57:42.521Z,3.80
